Time;durP1;ratioP1;P1;durP2;ratioP2;P2;SDS_P1;SDS_P2;PMS_P1;PMS_P2;Temp;Humidity;BMP_temperature;BMP_pressure;BME280_temperature;BME280_humidity;BME280_pressure;Samples;Min_cycle;Max_cycle;Signal;HPM_P1;HPM_P2
2023/05/01 00:00:17;;;;;;;5.10;4.32;;;9.70;99.90;;;9.21;100.00;97191.09;5044126;28;20028;-37
2023/05/01 00:02:42;;;;;;;5.70;4.20;;;9.60;99.90;;;9.18;100.00;97194.69;5046339;28;20056;-37
2023/05/01 00:05:08;;;;;;;4.75;3.83;;;9.60;99.90;;;9.14;100.00;97177.28;5044200;28;20124;-37
2023/05/01 00:07:34;;;;;;;5.97;4.30;;;9.60;99.90;;;9.09;100.00;97178.38;5046425;28;20388;-37
2023/05/01 00:10:00;;;;;;;4.88;3.97;;;9.60;99.90;;;9.09;100.00;97176.59;5044329;28;20186;-37
2023/05/01 00:12:26;;;;;;;5.80;4.32;;;9.50;99.90;;;8.98;100.00;97163.81;5050821;28;20029;-36
2023/05/01 00:14:54;;;;;;;4.38;3.97;;;9.50;99.90;;;9.06;100.00;97181.09;5044139;28;20032;-37
2023/05/01 00:17:21;;;;;;;6.05;4.43;;;9.50;99.90;;;8.97;100.00;97164.72;5042072;28;20089;-36
2023/05/01 00:19:52;;;;;;;5.15;4.13;;;9.40;99.90;;;9.01;100.00;97162.84;5041137;28;20035;-37
2023/05/01 00:22:17;;;;;;;5.28;3.85;;;9.40;99.90;;;8.90;100.00;97150.06;5050878;28;20028;-36
2023/05/01 00:24:43;;;;;;;6.53;4.43;;;9.40;99.90;;;8.98;100.00;97166.44;5046310;28;20047;-37
2023/05/01 00:27:09;;;;;;;6.60;4.22;;;9.40;99.90;;;8.95;100.00;97157.78;5046010;28;20029;-37
2023/05/01 00:29:34;;;;;;;6.35;4.55;;;9.40;99.90;;;8.93;100.00;97154.34;5043298;28;20129;-37
2023/05/01 00:32:00;;;;;;;5.80;4.50;;;9.40;99.90;;;8.95;100.00;97157.78;5045649;28;20480;-36
2023/05/01 00:34:26;;;;;;;6.90;4.70;;;9.40;99.90;;;8.92;100.00;97158.75;5046188;28;20040;-36
2023/05/01 00:36:51;;;;;;;5.70;4.75;;;9.40;99.90;;;8.92;100.00;97152.66;5042335;28;20040;-37
2023/05/01 00:39:17;;;;;;;6.35;5.50;;;9.30;99.90;;;8.88;100.00;97151.00;5043119;28;20115;-36
2023/05/01 00:41:43;;;;;;;8.48;5.72;;;9.30;99.90;;;8.85;100.00;97149.38;5045751;28;20028;-37
2023/05/01 00:44:08;;;;;;;7.30;5.82;;;9.30;99.90;;;8.83;100.00;97147.69;5044732;28;20078;-36
2023/05/01 00:46:34;;;;;;;7.45;5.43;;;9.30;99.90;;;8.82;100.00;97140.72;5042573;28;20063;-37
2023/05/01 00:49:00;;;;;;;7.57;5.80;;;9.20;99.90;;;8.80;100.00;97143.41;5042253;28;20544;-38
2023/05/01 00:51:28;;;;;;;8.00;6.15;;;9.20;99.90;;;8.79;100.00;97139.91;5043075;28;20079;-36
2023/05/01 00:53:55;;;;;;;9.45;5.80;;;9.20;99.90;;;8.77;100.00;97138.22;5045631;28;20033;-36
2023/05/01 00:56:21;;;;;;;7.75;5.80;;;9.20;99.90;;;8.74;100.00;97131.31;5045124;28;20047;-37
2023/05/01 00:58:52;;;;;;;7.90;6.25;;;9.20;99.90;;;8.72;100.00;97130.53;5042728;28;20111;-36
2023/05/01 01:01:20;;;;;;;9.73;5.60;;;9.10;99.90;;;8.70;100.00;97131.47;5044115;28;20033;-37
2023/05/01 01:03:47;;;;;;;7.15;5.45;;;9.10;99.90;;;8.72;100.00;97125.25;5044002;28;20037;-37
2023/05/01 01:06:47;;;;;;;6.78;5.75;;;9.10;99.90;;;8.71;100.00;97125.31;5044218;28;20024;-36
2023/05/01 01:09:40;;;;;;;7.68;6.20;;;9.20;99.90;;;8.74;100.00;97122.56;5041530;28;20050;-37
2023/05/01 01:12:35;;;;;;;7.93;5.60;;;9.20;99.90;;;8.73;100.00;97121.69;5046788;28;20649;-37
2023/05/01 01:15:30;;;;;;;7.35;6.18;;;9.20;99.90;;;8.73;100.00;97116.44;5041450;28;20722;-39
2023/05/01 01:18:11;;;;;;;7.05;5.88;;;9.20;99.90;;;8.64;100.00;97101.00;5043398;28;20492;-41
2023/05/01 01:20:44;;;;;;;7.30;5.28;;;9.20;99.90;;;8.70;100.00;97105.19;5045465;28;20037;-37
2023/05/01 01:23:24;;;;;;;7.57;5.68;;;9.10;99.90;;;8.69;100.00;97114.00;5043869;28;20056;-37
2023/05/01 01:26:37;;;;;;;6.30;5.35;;;9.10;99.90;;;8.67;100.00;97106.16;5044802;28;20420;-37
2023/05/01 01:29:22;;;;;;;7.57;5.70;;;9.10;99.90;;;8.67;100.00;97105.28;5040070;28;20463;-36
2023/05/01 01:32:04;;;;;;;6.72;5.53;;;9.10;99.90;;;8.66;100.00;97104.41;5047030;28;20112;-38
2023/05/01 01:34:34;;;;;;;;;;;9.10;99.90;;;8.57;100.00;97087.19;5046729;28;20036;-37
2023/05/01 01:37:07;;;;;;;8.73;6.18;;;9.10;99.90;;;8.67;100.00;97108.78;5039951;28;19925;-38
2023/05/01 01:39:56;;;;;;;8.55;5.80;;;9.10;99.90;;;8.67;100.00;97105.28;5068360;28;20025;-37
2023/05/01 01:42:29;;;;;;;6.80;5.18;;;9.10;99.90;;;8.67;100.00;97105.28;5043423;28;20041;-37
2023/05/01 01:44:59;;;;;;;8.18;5.38;;;9.10;99.90;;;8.67;100.00;97100.00;5041867;28;20412;-37
2023/05/01 01:47:32;;;;;;;6.43;5.20;;;9.10;99.90;;;8.67;100.00;97106.16;5042369;28;20029;-37
2023/05/01 01:50:03;;;;;;;7.25;5.57;;;9.10;99.90;;;8.67;100.00;97100.91;5040596;28;20024;-37
2023/05/01 01:52:30;;;;;;;7.53;5.60;;;9.10;99.90;;;8.69;100.00;97101.69;5045483;28;20021;-37
2023/05/01 01:55:05;;;;;;;6.93;5.07;;;9.10;99.90;;;8.70;100.00;97098.13;5038750;28;20620;-37
2023/05/01 01:57:32;;;;;;;6.90;5.05;;;9.10;99.90;;;8.71;100.00;97091.13;5046340;28;20036;-39
2023/05/01 01:59:58;;;;;;;6.85;5.57;;;9.10;99.90;;;8.66;100.00;97078.13;5034689;28;20556;-37
2023/05/01 02:02:25;;;;;;;6.93;5.28;;;9.20;99.90;;;8.70;100.00;97085.00;5042580;28;20055;-38
2023/05/01 02:04:52;;;;;;;6.82;5.22;;;9.20;99.90;;;8.73;100.00;97087.53;5041594;28;20033;-39
2023/05/01 02:07:19;;;;;;;7.60;5.80;;;9.20;99.90;;;8.75;100.00;97080.44;5040137;28;20635;-38
2023/05/01 02:09:47;;;;;;;8.43;5.45;;;9.20;99.90;;;8.77;100.00;97081.28;5043390;28;20488;-38
2023/05/01 02:12:15;;;;;;;8.45;5.43;;;9.20;99.90;;;8.80;100.00;97082.91;5060729;28;20052;-38
2023/05/01 02:14:41;;;;;;;7.47;5.53;;;9.20;99.90;;;8.78;100.00;97069.81;5035077;28;20523;-38
2023/05/01 02:17:09;;;;;;;7.53;5.78;;;9.30;99.90;;;8.79;100.00;97075.94;5035504;28;20460;-38
2023/05/01 02:19:41;;;;;;;5.85;5.15;;;9.20;99.90;;;8.80;100.00;97072.41;5023521;28;20025;-38
2023/05/01 02:22:08;;;;;;;6.70;5.70;;;9.20;99.90;;;8.82;100.00;97075.84;5035839;28;20021;-38
2023/05/01 02:24:37;;;;;;;6.20;5.20;;;9.30;99.90;;;8.82;100.00;97072.34;5033859;28;20179;-38
2023/05/01 02:27:20;;;;;;;7.50;5.88;;;9.30;99.90;;;8.73;100.00;97063.00;5041256;28;20036;-37
2023/05/01 02:29:46;;;;;;;8.90;5.60;;;9.30;99.90;;;8.78;100.00;97067.19;5039599;28;20036;-37
2023/05/01 02:32:12;;;;;;;7.65;5.68;;;9.30;99.90;;;8.83;100.00;97068.78;5041512;28;20044;-37
2023/05/01 02:34:38;;;;;;;8.90;5.63;;;9.30;99.90;;;8.83;100.00;97061.78;5049251;28;20556;-38
2023/05/01 02:37:05;;;;;;;8.30;5.70;;;9.30;99.90;;;8.82;100.00;97057.44;5046011;28;20067;-39
2023/05/01 02:39:31;;;;;;;8.07;6.30;;;9.20;99.90;;;8.83;100.00;97055.66;5047414;28;20492;-38
2023/05/01 02:42:02;;;;;;;7.47;5.65;;;9.30;99.90;;;8.82;100.00;97057.44;5043544;28;20052;-38
2023/05/01 02:44:32;;;;;;;7.53;5.75;;;9.30;99.90;;;8.86;100.00;97052.91;5041770;28;20533;-37
2023/05/01 02:46:59;;;;;;;7.18;5.60;;;9.30;99.90;;;8.85;100.00;97046.81;5037630;28;20401;-38
2023/05/01 02:49:26;;;;;;;7.57;5.85;;;9.30;99.90;;;8.86;100.00;97051.13;5043924;28;20037;-37
2023/05/01 02:51:52;;;;;;;7.38;5.43;;;9.30;99.90;;;8.87;100.00;97044.97;5045864;28;20345;-37
2023/05/01 02:54:19;;;;;;;7.50;5.32;;;9.30;99.90;;;8.89;100.00;97044.94;5041942;28;20456;-37
2023/05/01 02:56:44;;;;;;;8.77;5.32;;;9.30;99.90;;;8.87;100.00;97044.97;5042776;28;20044;-37
2023/05/01 02:59:10;;;;;;;7.55;5.80;;;9.30;99.90;;;8.90;100.00;97044.00;5042470;28;20032;-37
2023/05/01 03:01:36;;;;;;;7.50;5.60;;;9.40;99.90;;;8.91;100.00;97040.47;5041871;28;20025;-37
2023/05/01 03:04:02;;;;;;;8.98;5.65;;;9.40;99.90;;;8.92;100.00;97043.03;5045313;28;20029;-37
2023/05/01 03:06:29;;;;;;;6.82;5.65;;;9.40;99.90;;;8.92;100.00;97043.03;5048539;28;20040;-38
2023/05/01 03:08:55;;;;;;;7.35;5.63;;;9.40;99.90;;;8.90;100.00;97046.63;5045478;28;20036;-37
2023/05/01 03:11:23;;;;;;;6.72;5.60;;;9.40;99.90;;;8.90;100.00;97039.63;5042123;28;20036;-37
2023/05/01 03:13:48;;;;;;;6.97;5.43;;;9.40;99.90;;;8.93;100.00;97047.38;5043612;28;20536;-38
2023/05/01 03:16:14;;;;;;;7.32;5.78;;;9.40;99.90;;;8.92;100.00;97048.31;5038829;28;20047;-38
2023/05/01 03:18:39;;;;;;;7.15;5.65;;;9.40;99.90;;;8.94;100.00;97043.00;5046276;28;20415;-37
2023/05/01 03:21:05;;;;;;;6.00;5.07;;;9.40;99.90;;;8.93;100.00;97039.47;5043483;28;20041;-37
2023/05/01 03:23:31;;;;;;;8.07;5.47;;;9.40;99.90;;;8.96;100.00;97038.53;5045008;28;20504;-38
2023/05/01 03:25:57;;;;;;;8.60;5.60;;;9.40;99.90;;;8.97;100.00;97034.97;5042266;28;20438;-37
2023/05/01 03:28:23;;;;;;;7.07;6.00;;;9.40;99.90;;;8.98;100.00;97036.69;5046820;28;20036;-37
2023/05/01 03:30:51;;;;;;;9.15;5.47;;;9.50;99.90;;;8.96;100.00;97034.13;5044929;28;20025;-38
2023/05/01 03:33:16;;;;;;;6.85;5.95;;;9.40;99.90;;;9.00;100.00;97034.03;5042760;28;20037;-38
2023/05/01 03:35:42;;;;;;;7.32;5.60;;;9.50;99.90;;;9.01;100.00;97035.72;5043793;28;20040;-37
2023/05/01 03:38:08;;;;;;;11.63;5.70;;;9.50;99.90;;;9.02;100.00;97034.81;5043899;28;20028;-37
2023/05/01 03:40:34;;;;;;;8.80;5.57;;;9.50;99.90;;;9.03;100.00;97032.13;5042444;28;20033;-37
2023/05/01 03:42:59;;;;;;;9.20;5.75;;;9.50;99.90;;;9.04;100.00;97030.34;5034862;28;21092;-37
2023/05/01 03:45:26;;;;;;;8.85;5.88;;;9.50;99.90;;;9.05;100.00;97029.44;5041763;28;20032;-37
2023/05/01 03:47:51;;;;;;;6.88;5.65;;;9.50;99.90;;;9.04;100.00;97025.94;5042593;28;20024;-38
2023/05/01 03:50:17;;;;;;;12.95;6.15;;;9.50;99.90;;;9.05;100.00;97024.19;5046921;28;20527;-38
2023/05/01 03:52:43;;;;;;;7.75;5.65;;;9.50;99.90;;;9.06;100.00;97024.13;5045146;28;20033;-37
2023/05/01 03:55:09;;;;;;;8.90;5.80;;;9.50;99.90;;;9.06;100.00;97020.63;5043057;28;20045;-37
2023/05/01 03:57:35;;;;;;;9.45;5.55;;;9.50;99.90;;;9.07;100.00;97011.84;5036332;28;20486;-38
2023/05/01 04:00:01;;;;;;;6.97;5.82;;;9.50;99.90;;;9.08;100.00;97011.78;5043775;28;20551;-37
2023/05/01 04:02:26;;;;;;;7.90;5.70;;;9.50;99.90;;;9.08;100.00;97017.03;5044387;28;20041;-37
2023/05/01 04:04:52;;;;;;;7.97;5.35;;;9.50;99.90;;;9.07;100.00;97006.56;5040959;28;20017;-37
2023/05/01 04:07:18;;;;;;;7.20;5.68;;;9.50;99.90;;;9.04;100.00;97015.41;5037511;28;20379;-37
2023/05/01 04:09:43;;;;;;;8.70;5.30;;;9.50;99.90;;;9.02;100.00;97019.03;5042333;28;20484;-39
2023/05/01 04:12:09;;;;;;;7.18;5.30;;;9.50;99.90;;;9.03;100.00;97018.13;5038166;28;20033;-38
2023/05/01 04:14:35;;;;;;;8.15;5.55;;;9.50;99.90;;;9.05;100.00;97016.31;5040392;28;20372;-38
2023/05/01 04:17:01;;;;;;;8.02;5.03;;;9.50;99.90;;;9.06;100.00;97013.63;5035917;28;20032;-38
2023/05/01 04:19:26;;;;;;;5.50;4.38;;;9.50;99.90;;;9.08;100.00;97013.53;5040561;28;20052;-37
2023/05/01 04:21:53;;;;;;;6.00;4.75;;;9.50;99.90;;;9.07;100.00;97011.84;5038856;28;20157;-38
2023/05/01 04:24:18;;;;;;;6.53;4.88;;;9.50;99.90;;;9.08;100.00;97016.16;5046896;28;20050;-38
2023/05/01 04:26:44;;;;;;;6.68;5.05;;;9.50;99.90;;;9.08;100.00;97010.91;5046831;28;20033;-38
2023/05/01 04:29:10;;;;;;;6.00;5.30;;;9.50;99.90;;;9.09;100.00;97023.16;5039765;28;20036;-38
2023/05/01 04:31:36;;;;;;;7.80;5.72;;;9.50;99.90;;;9.08;100.00;97013.53;5041082;28;20111;-37
2023/05/01 04:34:02;;;;;;;8.32;5.82;;;9.60;99.90;;;9.06;100.00;97015.38;5043660;28;20424;-38
2023/05/01 04:36:28;;;;;;;7.68;6.30;;;9.50;99.90;;;9.06;100.00;97015.38;5047934;28;20052;-37
2023/05/01 04:38:54;;;;;;;7.00;5.63;;;9.50;99.90;;;9.04;100.00;97018.06;5045015;28;21337;-38
2023/05/01 04:41:20;;;;;;;6.50;5.18;;;9.50;99.90;;;9.04;100.00;97018.06;5047451;28;20024;-37
2023/05/01 04:43:46;;;;;;;8.00;5.45;;;9.50;99.90;;;9.06;100.00;97023.25;5046485;28;20093;-37
2023/05/01 04:46:11;;;;;;;8.20;5.68;;;9.50;99.90;;;9.01;100.00;97012.03;5042073;28;20032;-37
2023/05/01 04:48:37;;;;;;;6.80;5.63;;;9.50;99.90;;;9.05;100.00;97019.78;5039553;28;20093;-37
2023/05/01 04:51:03;;;;;;;7.88;5.25;;;9.50;99.90;;;9.08;100.00;97022.31;5035329;28;20048;-37
2023/05/01 04:53:28;;;;;;;7.78;5.30;;;9.50;99.90;;;9.09;100.00;97023.16;5042390;28;20510;-38
2023/05/01 04:55:54;;;;;;;6.50;5.25;;;9.50;99.90;;;9.10;100.00;97017.84;5039048;28;20033;-37
2023/05/01 04:58:20;;;;;;;6.95;5.30;;;9.50;99.90;;;9.12;100.00;97023.06;5038339;28;20200;-37
2023/05/01 05:00:46;;;;;;;6.32;4.85;;;9.60;99.90;;;9.13;100.00;97022.13;5039398;28;22793;-38
2023/05/01 05:03:11;;;;;;;7.45;5.55;;;9.60;99.90;;;9.14;100.00;97014.19;5040295;28;20043;-38
2023/05/01 05:05:37;;;;;;;9.50;5.47;;;9.60;99.90;;;9.16;100.00;97024.66;5036672;28;20032;-37
2023/05/01 05:08:03;;;;;;;6.68;5.40;;;9.60;99.90;;;9.14;100.00;97019.44;5040140;28;20593;-38
2023/05/01 05:10:28;;;;;;;5.93;4.95;;;9.60;99.90;;;9.22;100.00;97024.41;5038552;28;20040;-37
2023/05/01 05:12:54;;;;;;;8.07;6.07;;;9.60;99.90;;;9.26;100.00;97023.41;5042893;28;20036;-37
2023/05/01 05:15:20;;;;;;;7.15;5.60;;;9.70;99.90;;;9.29;100.00;97012.72;5038137;28;20032;-37
2023/05/01 05:17:46;;;;;;;8.40;5.00;;;9.70;99.90;;;9.33;100.00;97016.97;5045153;28;20054;-38
2023/05/01 05:20:11;;;;;;;6.13;4.97;;;9.80;99.90;;;9.40;100.00;97022.00;5033714;28;21526;-37
2023/05/01 05:22:37;;;;;;;6.95;5.30;;;9.90;99.90;;;9.42;100.00;97015.78;5041098;28;20645;-38
2023/05/01 05:25:05;;;;;;;5.55;4.70;;;9.90;99.90;;;9.46;100.00;97013.88;5041916;28;20040;-38
2023/05/01 05:27:35;;;;;;;6.20;4.95;;;9.90;99.90;;;9.48;100.00;97018.16;5040740;28;20347;-38
2023/05/01 05:30:01;;;;;;;6.43;4.93;;;9.90;99.90;;;9.51;100.00;97015.41;5037185;28;20028;-38
2023/05/01 05:34:57;;;;;;;8.43;5.80;;;9.90;99.90;;;9.48;100.00;97014.69;4985996;28;20529;-37
2023/05/01 05:37:24;;;;;;;7.60;4.90;;;9.90;99.90;;;9.47;100.00;97019.06;4982487;28;20043;-39
2023/05/01 05:39:53;;;;;;;11.00;5.43;;;9.90;99.90;;;9.44;100.00;97013.06;4985774;28;20030;-38
2023/05/01 05:42:19;;;;;;;7.65;5.75;;;9.90;99.90;;;9.40;100.00;97019.38;4989563;28;20026;-37
2023/05/01 05:44:45;;;;;;;8.73;6.07;;;9.90;99.90;;;9.22;100.00;97005.13;4988277;28;20121;-37
2023/05/01 05:47:10;;;;;;;6.25;5.45;;;9.80;99.90;;;9.23;100.00;97010.34;4984806;28;20654;-37
2023/05/01 05:49:36;;;;;;;7.03;5.72;;;9.80;99.90;;;9.28;100.00;97032.09;4989204;28;20030;-37
2023/05/01 05:52:02;;;;;;;5.95;5.18;;;9.70;99.90;;;9.28;100.00;97024.19;4986461;28;20513;-37
2023/05/01 05:54:28;;;;;;;6.45;5.50;;;9.70;99.90;;;9.30;100.00;97022.34;4985260;28;20234;-37
2023/05/01 05:56:53;;;;;;;5.75;5.13;;;9.70;99.90;;;9.32;100.00;97022.28;4980929;28;20047;-38
2023/05/01 05:59:19;;;;;;;5.88;5.05;;;9.80;99.90;;;9.36;100.00;97023.88;4984661;28;20080;-39
2023/05/01 06:01:46;;;;;;;6.60;5.60;;;9.80;99.90;;;9.40;100.00;97028.09;4988389;28;20022;-38
2023/05/01 06:04:13;;;;;;;6.38;4.88;;;9.80;99.90;;;9.42;100.00;97028.06;4986699;28;20042;-37
2023/05/01 06:06:40;;;;;;;5.75;4.97;;;9.90;99.90;;;9.47;100.00;97028.75;4981117;28;20042;-37
2023/05/01 06:09:07;;;;;;;6.82;5.05;;;9.90;99.90;;;9.49;100.00;97019.88;4983919;28;20077;-38
2023/05/01 06:11:33;;;;;;;7.40;5.30;;;10.00;99.90;;;9.55;100.00;97022.28;4987742;28;20486;-38
2023/05/01 06:13:59;;;;;;;7.35;5.13;;;10.00;99.90;;;9.60;100.00;97019.47;4988195;28;20053;-39
2023/05/01 06:16:25;;;;;;;6.95;5.07;;;10.10;99.90;;;9.62;100.00;97014.13;4979963;28;20060;-37
2023/05/01 06:18:51;;;;;;;8.82;5.13;;;10.10;99.90;;;9.77;100.00;97025.84;4984511;28;20117;-37
2023/05/01 06:21:16;;;;;;;5.95;4.85;;;10.20;99.90;;;9.77;100.00;97013.53;4988596;28;20026;-39
2023/05/01 06:23:42;;;;;;;6.95;5.03;;;10.30;99.90;;;9.88;100.00;97010.47;4991352;28;20049;-38
2023/05/01 06:26:08;;;;;;;6.00;4.78;;;10.40;99.90;;;9.93;100.00;97011.13;4992390;28;20386;-38
2023/05/01 06:28:34;;;;;;;6.72;5.20;;;10.50;99.90;;;10.13;100.00;97026.97;4988979;28;20042;-39
2023/05/01 06:31:00;;;;;;;7.72;5.57;;;10.60;99.90;;;10.00;100.00;96986.25;5000603;28;20402;-38
2023/05/01 06:33:25;;;;;;;8.80;5.22;;;10.60;99.90;;;10.36;100.00;97025.19;4999548;28;20036;-38
2023/05/01 06:35:51;;;;;;;6.70;4.65;;;10.80;99.90;;;10.42;100.00;97021.44;5010820;28;20777;-38
2023/05/01 06:38:17;;;;;;;6.32;4.82;;;10.90;99.90;;;10.63;100.00;97027.59;5008014;28;20034;-38
2023/05/01 06:40:45;;;;;;;6.18;5.13;;;11.00;99.90;;;10.68;100.00;97025.63;5004252;28;20025;-39
2023/05/01 06:43:11;;;;;;;6.38;4.75;;;11.10;99.90;;;10.67;100.00;97000.16;5003161;28;20033;-38
2023/05/01 06:45:38;;;;;;;6.35;4.50;;;11.20;99.90;;;10.89;100.00;97045.78;5014056;28;20080;-40
2023/05/01 06:48:05;;;;;;;6.82;5.03;;;11.30;99.90;;;10.91;100.00;97019.34;5016123;28;20191;-39
2023/05/01 06:50:30;;;;;;;8.07;5.28;;;11.30;99.90;;;11.02;100.00;97045.25;5017179;28;20056;-38
2023/05/01 06:52:58;;;;;;;7.95;5.30;;;11.40;99.90;;;11.08;100.00;97040.53;5013810;28;20038;-38
2023/05/01 06:55:24;;;;;;;4.97;4.47;;;11.50;99.90;;;11.13;100.00;97042.97;5015910;28;20563;-38
2023/05/01 06:57:50;;;;;;;5.35;4.60;;;11.50;99.90;;;11.13;100.00;97040.34;5014651;28;20111;-38
2023/05/01 07:00:16;;;;;;;7.03;4.85;;;11.60;99.90;;;11.19;100.00;97042.69;5010410;28;20022;-41
2023/05/01 07:02:44;;;;;;;8.85;5.25;;;11.60;99.90;;;11.26;100.00;97054.69;5011715;28;20067;-39
2023/05/01 07:05:10;;;;;;;5.72;4.95;;;11.70;99.90;;;11.35;100.00;97058.69;5014123;28;20091;-38
2023/05/01 07:07:36;;;;;;;8.32;5.68;;;11.80;99.90;;;11.34;100.00;97045.56;5013949;28;20022;-37
2023/05/01 07:10:01;;;;;;;6.65;4.93;;;11.80;99.90;;;11.47;100.00;97046.72;5015703;28;20039;-37
2023/05/01 07:12:28;;;;;;;8.23;5.15;;;11.90;99.90;;;11.65;100.00;97047.66;5016480;28;20537;-37
2023/05/01 07:14:55;;;;;;;6.13;5.30;;;12.10;99.90;;;11.84;100.00;97047.63;5014708;28;22099;-38
2023/05/01 07:17:21;;;;;;;8.02;5.72;;;12.30;99.90;;;11.95;100.00;97052.44;5014614;28;20084;-37
2023/05/01 07:19:48;;;;;;;9.30;5.18;;;12.40;99.90;;;12.07;100.00;97051.84;5014347;28;20500;-38
2023/05/01 07:22:14;;;;;;;7.93;5.30;;;12.50;99.90;;;12.28;100.00;97052.59;5014493;28;20128;-38
2023/05/01 07:24:40;;;;;;;8.43;5.32;;;12.70;99.90;;;12.44;100.00;97059.78;5014198;28;20108;-38
2023/05/01 07:27:06;;;;;;;5.70;5.10;;;12.90;99.90;;;12.59;100.00;97054.53;5011597;28;20030;-37
2023/05/01 07:29:32;;;;;;;8.77;5.10;;;13.00;99.90;;;12.72;100.00;97057.44;5012329;28;20134;-38
2023/05/01 07:31:58;;;;;;;6.70;4.78;;;13.20;99.90;;;12.80;100.00;97052.59;5009098;28;20041;-38
2023/05/01 07:34:23;;;;;;;7.40;4.68;;;13.20;99.90;;;12.89;100.00;97053.91;5013145;28;20112;-37
2023/05/01 07:36:49;;;;;;;7.93;5.32;;;13.30;99.90;;;12.96;100.00;97044.72;5011023;28;20443;-37
2023/05/01 07:39:16;;;;;;;6.57;5.05;;;13.40;99.90;;;13.02;100.00;97054.13;5009498;28;20686;-38
2023/05/01 07:41:42;;;;;;;8.85;6.20;;;13.40;99.90;;;13.04;100.00;97054.06;5005420;28;20115;-38
2023/05/01 07:44:08;;;;;;;6.57;5.00;;;13.50;99.90;;;13.20;100.00;97048.81;5012361;28;20041;-37
2023/05/01 07:46:35;;;;;;;5.32;4.30;;;13.60;99.90;;;13.41;100.00;97047.69;5010991;28;20045;-39
2023/05/01 07:49:01;;;;;;;6.53;4.90;;;13.80;99.90;;;13.65;100.00;97044.66;5011701;28;20033;-37
2023/05/01 07:51:27;;;;;;;6.97;5.65;;;14.10;99.90;;;13.83;100.00;97050.72;5007543;28;20048;-39
2023/05/01 07:53:52;;;;;;;5.00;4.22;;;14.20;99.90;;;14.04;100.00;97049.53;5010291;28;20048;-38
2023/05/01 07:56:18;;;;;;;8.98;5.60;;;14.40;99.90;;;14.11;98.01;97042.09;5010037;28;20099;-38
2023/05/01 07:58:44;;;;;;;6.72;4.95;;;14.50;99.90;;;14.06;97.96;97036.19;5013481;28;20037;-39
2023/05/01 08:01:10;;;;;;;6.63;4.82;;;14.40;99.90;;;14.00;98.26;97039.16;5008919;28;20375;-38
2023/05/01 08:03:35;;;;;;;9.10;5.95;;;14.40;99.90;;;13.87;97.47;97044.31;5008294;28;20030;-38
2023/05/01 08:06:01;;;;;;;9.25;5.55;;;14.40;99.90;;;13.81;99.88;97031.41;5010974;28;20037;-38
2023/05/01 08:08:27;;;;;;;7.22;4.70;;;14.20;99.90;;;13.81;100.00;97036.72;5014786;28;20033;-38
2023/05/01 08:10:53;;;;;;;6.30;4.80;;;14.20;99.90;;;13.80;100.00;97040.28;5009122;28;20029;-38
2023/05/01 08:13:19;;;;;;;6.35;4.55;;;14.20;99.90;;;13.76;99.34;97039.59;5005670;28;20036;-38
2023/05/01 08:15:48;;;;;;;5.47;4.55;;;14.10;99.90;;;13.77;99.95;97037.81;5005243;28;20029;-38
2023/05/01 08:18:19;;;;;;;6.13;4.70;;;14.10;99.90;;;13.72;96.85;97043.38;5013097;28;20501;-38
2023/05/01 08:20:48;;;;;;;7.00;5.38;;;14.10;99.90;;;13.70;92.46;97037.31;5001717;28;20037;-38
2023/05/01 08:23:17;;;;;;;6.10;5.22;;;14.10;99.90;;;13.77;94.44;97033.38;5002179;28;20029;-39
2023/05/01 08:25:45;;;;;;;7.57;5.68;;;14.20;99.90;;;13.77;90.90;97027.22;5003876;28;20029;-37
2023/05/01 08:28:13;;;;;;;6.88;4.82;;;14.30;99.90;;;14.07;91.58;97035.25;5003522;28;20025;-39
2023/05/01 08:30:39;;;;;;;7.68;4.65;;;14.50;99.90;;;14.33;92.03;97039.03;4994446;28;20041;-38
2023/05/01 08:33:04;;;;;;;6.18;4.63;;;14.70;99.90;;;14.55;89.56;97030.69;4994476;28;20037;-40
2023/05/01 08:35:30;;;;;;;6.88;4.85;;;15.00;99.90;;;14.84;88.44;97034.31;4994949;28;20033;-38
2023/05/01 08:37:56;;;;;;;8.77;5.30;;;15.20;99.90;;;14.98;81.54;97040.59;5001635;28;20120;-37
2023/05/01 08:40:24;;;;;;;5.70;4.72;;;15.50;99.90;;;15.22;75.61;97031.13;5007291;28;20032;-37
2023/05/01 08:42:51;;;;;;;6.25;4.53;;;15.60;99.90;;;15.45;81.21;97029.69;5007742;28;20034;-37
2023/05/01 08:45:20;;;;;;;6.47;4.70;;;15.80;99.90;;;15.63;80.21;97019.72;5003264;28;20543;-37
2023/05/01 08:47:47;;;;;;;5.43;4.38;;;16.10;99.90;;;15.92;74.19;97030.31;5004250;28;20536;-37
2023/05/01 08:50:13;;;;;;;4.32;3.65;;;16.20;99.90;;;16.14;76.61;97026.28;5007886;28;20116;-37
2023/05/01 08:52:43;;;;;;;6.18;4.25;;;16.40;99.90;;;16.25;72.87;97028.22;4971890;28;20026;-37
2023/05/01 08:55:13;;;;;;;5.22;4.10;;;16.60;99.90;;;16.39;70.65;97028.16;5002826;28;20058;-37
2023/05/01 08:57:46;;;;;;;5.80;4.20;;;16.70;99.90;;;16.33;71.23;97024.13;5004441;28;20125;-37
2023/05/01 09:00:20;;;;;;;4.82;3.80;;;16.70;99.90;;;16.34;71.11;97024.97;5012735;28;20120;-37
2023/05/01 09:02:50;;;;;;;5.35;4.45;;;16.70;99.90;;;16.31;68.42;97031.34;4999869;28;20076;-39
2023/05/01 09:05:18;;;;;;;5.10;3.50;;;16.80;99.90;;;16.52;69.76;97033.53;5001550;28;20028;-38
2023/05/01 09:07:45;;;;;;;5.25;3.92;;;16.90;99.90;;;16.56;67.50;97035.91;4992957;28;20037;-38
2023/05/01 09:10:19;;;;;;;5.57;4.28;;;17.00;99.90;;;16.59;67.56;97029.50;5000186;28;20026;-38
2023/05/01 09:12:53;;;;;;;4.60;3.83;;;17.00;99.90;;;16.75;67.23;97035.50;5000766;28;20248;-38
2023/05/01 09:15:19;;;;;;;5.90;4.50;;;17.10;99.90;;;16.78;71.84;97045.94;4990518;28;20068;-39
2023/05/01 09:17:45;;;;;;;5.10;3.70;;;17.20;99.90;;;16.85;68.52;97038.44;4986385;28;20110;-39
2023/05/01 09:20:11;;;;;;;5.28;4.22;;;17.30;99.90;;;16.89;65.95;97041.75;5002512;28;20036;-39
2023/05/01 09:22:36;;;;;;;4.50;3.45;;;17.30;99.90;;;17.03;67.88;97031.00;5005008;28;20163;-40
2023/05/01 09:25:03;;;;;;;6.00;3.83;;;17.40;99.90;;;17.09;67.03;97037.69;5009397;28;20025;-39
2023/05/01 09:27:34;;;;;;;4.20;3.33;;;17.50;99.90;;;17.15;68.01;97031.94;5003416;28;20128;-38
2023/05/01 09:30:00;;;;;;;6.30;5.05;;;17.50;99.90;;;17.12;67.14;97038.34;4991181;28;20065;-39
2023/05/01 09:32:29;;;;;;;6.32;4.60;;;17.60;99.90;;;17.26;67.97;97042.69;5010421;28;20408;-39
2023/05/01 09:35:09;;;;;;;5.90;4.80;;;17.70;99.90;;;17.35;68.64;97050.06;5008601;28;20037;-39
2023/05/01 09:37:34;;;;;;;6.32;4.80;;;17.80;99.90;;;17.41;67.41;97046.13;5010095;28;20455;-39
2023/05/01 09:40:08;;;;;;;6.90;5.25;;;18.00;99.90;;;17.36;67.85;97042.91;5009900;28;20502;-39
2023/05/01 09:42:36;;;;;;;6.93;4.95;;;18.00;99.90;;;17.46;68.71;97051.97;5014409;28;20030;-38
2023/05/01 09:45:10;;;;;;;6.72;4.63;;;18.20;99.90;;;17.66;67.11;97039.91;4999934;28;20033;-39
2023/05/01 09:47:36;;;;;;;8.52;5.60;;;18.30;99.90;;;17.65;65.11;97032.84;5013512;28;20112;-39
2023/05/01 09:50:03;;;;;;;8.02;4.90;;;18.40;99.90;;;17.92;62.25;97034.53;5013196;28;20044;-39
2023/05/01 09:52:30;;;;;;;6.78;5.38;;;18.60;99.90;;;17.96;62.15;97027.16;4994207;28;20540;-37
2023/05/01 09:55:15;;;;;;;6.65;5.00;;;18.60;99.90;;;17.62;66.11;97030.44;5011653;28;20463;-38
2023/05/01 09:57:43;;;;;;;6.22;4.70;;;18.50;99.90;;;17.64;66.47;97033.84;5012564;28;20060;-38
2023/05/01 10:00:14;;;;;;;6.95;4.93;;;18.40;99.90;;;17.64;65.97;97017.84;5013579;28;20025;-38
2023/05/01 10:02:46;;;;;;;6.30;4.82;;;18.30;99.90;;;17.48;67.52;97038.53;5012657;28;20030;-38
2023/05/01 10:05:13;;;;;;;5.22;4.72;;;18.20;99.90;;;17.41;65.37;97037.25;5014592;28;20512;-38
2023/05/01 10:07:39;;;;;;;6.75;4.38;;;18.00;99.90;;;17.35;66.38;97036.75;5015465;28;20041;-38
2023/05/01 10:10:21;;;;;;;6.45;4.47;;;17.90;99.90;;;17.18;67.70;97035.25;5015002;28;20049;-39
2023/05/01 10:12:48;;;;;;;10.15;5.50;;;17.80;99.90;;;16.84;68.46;97033.22;5014916;28;20446;-38
2023/05/01 10:15:14;;;;;;;6.47;5.47;;;17.60;99.90;;;16.74;69.87;97015.16;4998084;28;20656;-38
2023/05/01 10:17:42;;;;;;;8.27;5.78;;;17.50;99.90;;;16.75;69.86;97035.50;5007997;28;20409;-38
2023/05/01 10:20:11;;;;;;;7.80;5.70;;;17.50;99.90;;;16.73;68.34;97036.56;5004495;28;20044;-38
2023/05/01 10:22:38;;;;;;;6.75;5.32;;;17.40;99.90;;;16.69;67.33;97037.72;5004068;28;20469;-38
2023/05/01 10:25:08;;;;;;;8.63;4.60;;;17.40;99.90;;;16.87;69.68;97035.63;5015006;28;20040;-38
2023/05/01 10:27:35;;;;;;;7.82;5.40;;;17.40;99.90;;;17.04;64.95;97029.16;5010397;28;20674;-38